createdAt,value
2019-06-20T00:00:50.372Z,18.07
2019-06-20T00:03:21.260Z,18.07
2019-06-20T00:05:52.005Z,18.07
2019-06-20T00:08:21.725Z,18.13
2019-06-20T00:10:52.381Z,18.02
2019-06-20T00:13:21.850Z,18.02
2019-06-20T00:15:51.804Z,18.02
2019-06-20T00:18:21.395Z,17.97
2019-06-20T00:20:51.509Z,17.97
2019-06-20T00:23:21.255Z,17.95
2019-06-20T00:25:50.916Z,17.83
2019-06-20T00:28:23.898Z,17.80
2019-06-20T00:30:54.689Z,17.79
2019-06-20T00:33:24.855Z,17.71
2019-06-20T00:35:54.444Z,17.81
2019-06-20T00:38:26.071Z,17.86
2019-06-20T00:40:55.844Z,17.86
2019-06-20T00:43:25.940Z,17.79
2019-06-20T00:45:55.661Z,17.79
2019-06-20T00:48:27.385Z,17.81
2019-06-20T00:50:58.198Z,17.73
2019-06-20T00:53:29.050Z,17.79
2019-06-20T00:55:58.883Z,17.82
2019-06-20T00:58:30.297Z,17.81
2019-06-20T01:00:59.923Z,17.71
2019-06-20T01:03:29.773Z,17.77
2019-06-20T01:05:59.374Z,17.77
2019-06-20T01:08:30.311Z,17.82
2019-06-20T01:11:00.020Z,17.83
2019-06-20T01:13:34.099Z,17.83
2019-06-20T01:16:01.156Z,17.75
2019-06-20T01:18:30.761Z,17.75
2019-06-20T01:21:02.954Z,17.89
2019-06-20T01:23:32.643Z,17.80
2019-06-20T01:26:02.334Z,17.90
2019-06-20T01:28:34.709Z,17.92
2019-06-20T01:31:05.381Z,17.89
2019-06-20T01:33:35.261Z,17.94
2019-06-20T01:36:05.989Z,18.00
2019-06-20T01:38:35.800Z,17.91
2019-06-20T01:41:06.373Z,17.91
2019-06-20T01:43:50.050Z,18.03
2019-06-20T01:46:09.240Z,18.21
2019-06-20T01:48:39.863Z,18.20
2019-06-20T01:51:10.596Z,18.20
2019-06-20T01:53:42.467Z,18.22
2019-06-20T01:56:12.122Z,18.25
2019-06-20T01:58:41.886Z,18.25
2019-06-20T02:01:11.427Z,18.30
2019-06-20T02:03:42.023Z,18.25
2019-06-20T02:06:12.634Z,18.29
2019-06-20T02:08:42.359Z,18.26
2019-06-20T02:11:15.845Z,18.35
2019-06-20T02:13:45.466Z,18.35
2019-06-20T02:16:14.953Z,18.25
2019-06-20T02:18:44.693Z,18.25
2019-06-20T02:21:14.270Z,18.13
2019-06-20T02:23:45.640Z,18.13
2019-06-20T02:26:15.274Z,18.22
2019-06-20T02:28:46.079Z,18.19
2019-06-20T02:31:15.679Z,18.25
2019-06-20T02:33:45.487Z,18.16
2019-06-20T02:36:15.245Z,18.17
2019-06-20T02:38:45.154Z,18.17
2019-06-20T02:41:15.003Z,18.29
2019-06-20T02:43:44.981Z,18.29
2019-06-20T02:46:14.915Z,18.32
2019-06-20T02:48:44.990Z,18.32
2019-06-20T02:51:14.990Z,18.26
2019-06-20T02:53:44.784Z,18.29
2019-06-20T02:56:15.771Z,18.29
2019-06-20T02:58:45.506Z,18.28
2019-06-20T03:01:15.458Z,18.20
2019-06-20T03:03:45.498Z,18.20
2019-06-20T03:06:15.258Z,18.23
2019-06-20T03:08:45.125Z,18.28
2019-06-20T03:11:15.133Z,18.26
2019-06-20T03:13:45.051Z,18.33
2019-06-20T03:16:14.894Z,18.33
2019-06-20T03:18:44.758Z,18.18
2019-06-20T03:21:14.685Z,18.25
2019-06-20T03:23:44.362Z,18.15
2019-06-20T03:26:14.253Z,18.14
2019-06-20T03:28:44.106Z,18.05
2019-06-20T03:31:13.864Z,18.05
2019-06-20T03:33:43.956Z,18.03
2019-06-20T03:36:13.853Z,18.05
2019-06-20T03:38:43.529Z,18.05
2019-06-20T03:41:13.536Z,18.16
2019-06-20T03:43:43.487Z,18.14
2019-06-20T03:46:14.159Z,18.09
2019-06-20T03:48:44.044Z,18.09
2019-06-20T03:51:13.911Z,18.17
2019-06-20T03:53:43.716Z,18.19
2019-06-20T03:56:13.595Z,18.19
2019-06-20T03:58:43.613Z,18.22
2019-06-20T04:01:13.374Z,18.25
2019-06-20T04:03:43.467Z,18.18
2019-06-20T04:06:13.396Z,18.19
2019-06-20T04:08:43.210Z,18.15
2019-06-20T04:11:13.065Z,18.18
2019-06-20T04:13:42.932Z,18.13
2019-06-20T04:16:13.858Z,18.16
2019-06-20T04:18:43.597Z,18.01
2019-06-20T04:21:13.495Z,18.01
2019-06-20T04:23:43.351Z,18.03
2019-06-20T04:26:13.131Z,18.04
2019-06-20T04:28:42.874Z,18.03
2019-06-20T04:31:14.317Z,18.10
2019-06-20T04:33:43.892Z,18.10
2019-06-20T04:36:13.970Z,18.07
2019-06-20T04:38:43.856Z,18.10
2019-06-20T04:41:13.623Z,18.01
2019-06-20T04:43:43.676Z,17.97
2019-06-20T04:46:22.928Z,18.03
2019-06-20T04:48:52.846Z,18.03
2019-06-20T04:51:22.819Z,18.02
2019-06-20T04:53:52.837Z,18.02
2019-06-20T04:56:25.139Z,18.16
2019-06-20T04:58:55.042Z,18.09
2019-06-20T05:01:24.862Z,18.09
2019-06-20T05:03:54.724Z,18.00
2019-06-20T05:06:24.690Z,18.01
2019-06-20T05:08:54.561Z,17.74
2019-06-20T05:11:24.323Z,17.74
2019-06-20T05:13:55.244Z,18.04
2019-06-20T05:16:25.050Z,17.98
2019-06-20T05:18:55.002Z,18.06
2019-06-20T05:21:27.251Z,18.03
2019-06-20T05:23:57.022Z,18.18
2019-06-20T05:26:27.040Z,18.13
2019-06-20T05:28:56.906Z,18.19
2019-06-20T05:31:26.948Z,18.19
2019-06-20T05:33:57.033Z,18.05
2019-06-20T05:36:27.987Z,18.13
2019-06-20T05:38:57.987Z,18.13
2019-06-20T05:41:27.785Z,18.16
2019-06-20T05:43:57.713Z,18.27
2019-06-20T05:46:27.430Z,18.27
2019-06-20T05:48:57.311Z,18.33
2019-06-20T05:51:27.311Z,18.55
2019-06-20T05:53:57.022Z,18.36
2019-06-20T05:56:33.824Z,18.45
2019-06-20T05:58:59.305Z,18.45
2019-06-20T06:01:30.079Z,18.51
2019-06-20T06:04:00.390Z,18.51
2019-06-20T06:06:32.543Z,18.36
2019-06-20T06:09:05.166Z,18.31
2019-06-20T06:11:35.285Z,18.45
2019-06-20T06:14:05.220Z,18.53
2019-06-20T06:16:35.163Z,18.71
2019-06-20T06:19:04.962Z,18.72
2019-06-20T06:21:34.740Z,18.72
2019-06-20T06:24:04.595Z,18.71
2019-06-20T06:26:34.347Z,18.82
2019-06-20T06:29:06.199Z,18.81
2019-06-20T06:31:36.115Z,18.85
2019-06-20T06:34:05.977Z,18.74
2019-06-20T06:36:35.909Z,18.85
2019-06-20T06:39:07.989Z,18.79
2019-06-20T06:41:37.730Z,18.73
2019-06-20T06:44:08.636Z,18.73
2019-06-20T06:46:44.871Z,18.99
2019-06-20T06:49:09.958Z,18.99
2019-06-20T06:51:39.614Z,18.99
2019-06-20T06:54:09.542Z,19.04
2019-06-20T06:56:39.623Z,19.14
2019-06-20T06:59:09.898Z,19.25
2019-06-20T07:01:39.994Z,19.25
2019-06-20T07:04:09.953Z,19.21
2019-06-20T07:06:39.635Z,19.21
2019-06-20T07:09:10.042Z,19.15
2019-06-20T07:11:39.984Z,19.09
2019-06-20T07:14:27.053Z,19.03
2019-06-20T07:16:59.693Z,19.00
2019-06-20T07:19:19.802Z,18.97
2019-06-20T07:21:49.944Z,18.97
2019-06-20T07:24:19.796Z,19.10
2019-06-20T07:26:49.843Z,19.08
2019-06-20T07:29:19.813Z,18.76
2019-06-20T07:31:50.984Z,18.81
2019-06-20T07:34:25.469Z,18.81
2019-06-20T07:37:23.262Z,18.77
2019-06-20T07:39:53.128Z,18.66
2019-06-20T07:42:38.769Z,18.60
2019-06-20T07:45:08.970Z,18.61
2019-06-20T07:47:45.119Z,18.65
2019-06-20T07:50:18.551Z,18.68
2019-06-20T07:53:02.007Z,18.87
2019-06-20T07:55:36.796Z,19.16
2019-06-20T07:58:24.507Z,19.50
2019-06-20T08:01:22.753Z,19.70
2019-06-20T08:03:45.272Z,19.71
2019-06-20T08:06:15.385Z,19.71
2019-06-20T08:08:45.149Z,19.66
2019-06-20T08:11:18.478Z,19.66
2019-06-20T08:14:35.443Z,19.78
2019-06-20T08:22:05.939Z,20.02
2019-06-20T08:24:38.684Z,19.93
2019-06-20T08:27:14.641Z,20.34
2019-06-20T08:29:47.449Z,20.34
2019-06-20T08:32:21.470Z,20.66
2019-06-20T08:34:54.126Z,20.80
2019-06-20T08:37:24.012Z,21.08
2019-06-20T08:39:56.801Z,21.14
2019-06-20T08:42:27.175Z,21.14
2019-06-20T08:45:11.372Z,21.10
2019-06-20T08:48:37.156Z,21.19
2019-06-20T08:51:14.577Z,21.14
2019-06-20T08:53:45.446Z,21.14
2019-06-20T08:56:16.288Z,21.30
2019-06-20T08:58:47.001Z,21.30
2019-06-20T09:01:31.570Z,21.39
2019-06-20T09:04:18.573Z,21.18
2019-06-20T09:06:50.132Z,21.43
2019-06-20T09:09:25.665Z,21.43
2019-06-20T09:12:02.386Z,21.49
2019-06-20T09:14:55.170Z,21.49
2019-06-20T09:17:39.524Z,21.62
2019-06-20T09:20:14.270Z,21.64
2019-06-20T09:26:24.938Z,21.85
2019-06-20T09:29:05.404Z,21.67
2019-06-20T09:31:35.133Z,21.67
2019-06-20T09:36:57.527Z,21.58
2019-06-20T09:39:51.561Z,21.37
2019-06-20T09:42:38.692Z,21.69
2019-06-20T09:45:33.673Z,21.71
2019-06-20T09:48:15.386Z,21.45
2019-06-20T09:51:04.715Z,21.45
2019-06-20T09:53:40.685Z,21.99
2019-06-20T09:56:15.105Z,21.99
2019-06-20T09:58:49.489Z,21.91
2019-06-20T10:01:29.282Z,21.87
2019-06-20T10:04:12.019Z,22.32
2019-06-20T10:06:43.814Z,22.38
2019-06-20T10:09:19.298Z,22.38
2019-06-20T10:11:57.121Z,22.08
2019-06-20T10:14:49.539Z,22.31
2019-06-20T10:21:11.473Z,22.13
2019-06-20T10:23:54.453Z,22.11
2019-06-20T10:26:49.650Z,22.06
2019-06-20T10:30:25.990Z,22.06
2019-06-20T10:33:25.862Z,22.29
2019-06-20T10:36:10.287Z,22.29
2019-06-20T10:38:43.704Z,22.31
2019-06-20T10:41:57.229Z,22.10
2019-06-20T10:46:14.482Z,22.01
2019-06-20T10:47:31.626Z,22.01
2019-06-20T10:50:02.999Z,22.01
2019-06-20T10:52:34.648Z,21.95
2019-06-20T10:55:19.217Z,21.98
2019-06-20T10:57:49.970Z,22.18
2019-06-20T11:00:30.210Z,22.05
2019-06-20T11:03:00.571Z,22.39
2019-06-20T11:06:18.684Z,22.39
2019-06-20T11:11:43.059Z,22.48
2019-06-20T11:15:19.954Z,22.47
2019-06-20T11:24:47.973Z,22.59
2019-06-20T11:33:21.395Z,22.94
2019-06-20T11:35:51.115Z,22.94
2019-06-20T11:38:40.704Z,23.06
2019-06-20T11:41:15.664Z,23.29
2019-06-20T11:44:00.592Z,23.26
2019-06-20T11:46:35.899Z,23.26
2019-06-20T11:49:06.415Z,23.60
2019-06-20T11:51:52.053Z,23.26
2019-06-20T11:57:33.756Z,23.18
2019-06-20T12:00:05.306Z,23.18
2019-06-20T12:02:35.230Z,22.81
2019-06-20T12:05:09.761Z,22.81
2019-06-20T12:07:41.504Z,22.71
2019-06-20T12:10:15.935Z,22.89
2019-06-20T12:12:44.595Z,22.89
2019-06-20T12:15:44.818Z,23.18
2019-06-20T12:18:17.515Z,23.18
2019-06-20T12:21:33.573Z,22.43
2019-06-20T12:23:59.968Z,22.75
2019-06-20T12:26:29.797Z,22.75
2019-06-20T12:29:49.673Z,23.02
2019-06-20T12:33:28.568Z,23.02
2019-06-20T12:39:34.411Z,23.18
2019-06-20T12:49:45.830Z,23.36
2019-06-20T12:55:50.685Z,23.53
2019-06-20T12:58:32.168Z,23.65
2019-06-20T13:01:44.869Z,23.65
2019-06-20T13:09:15.975Z,23.71
2019-06-20T13:11:34.129Z,23.71
2019-06-20T13:14:22.052Z,23.92
2019-06-20T13:18:03.754Z,23.92
2019-06-20T13:20:42.309Z,24.27
2019-06-20T13:24:01.771Z,24.49
2019-06-20T13:26:59.366Z,24.28
2019-06-20T13:29:35.303Z,24.28
2019-06-20T13:32:06.447Z,24.10
2019-06-20T13:34:41.641Z,24.19
2019-06-20T13:51:12.460Z,23.14
2019-06-20T13:54:03.282Z,22.85
2019-06-20T13:56:37.485Z,22.58
2019-06-20T14:02:06.497Z,22.39
2019-06-20T14:04:35.472Z,22.25
2019-06-20T14:07:08.152Z,21.72
2019-06-20T14:09:37.970Z,21.64
2019-06-20T14:12:09.801Z,21.21
2019-06-20T14:15:28.171Z,21.21
2019-06-20T14:17:50.268Z,20.89
2019-06-20T14:20:21.463Z,20.89
2019-06-20T14:22:56.656Z,20.68
2019-06-20T14:26:06.197Z,20.31
2019-06-20T14:28:51.999Z,20.31
2019-06-20T14:31:26.292Z,19.97
2019-06-20T14:34:18.686Z,19.76
2019-06-20T14:36:50.514Z,19.82
2019-06-20T14:39:20.170Z,19.48
2019-06-20T14:42:19.589Z,19.63
2019-06-20T14:45:03.560Z,19.63
2019-06-20T14:47:36.524Z,19.50
2019-06-20T14:50:06.869Z,19.51
2019-06-20T14:52:36.770Z,19.61
2019-06-20T14:55:06.939Z,19.62
2019-06-20T14:57:36.601Z,19.96
2019-06-20T15:00:07.099Z,19.99
2019-06-20T15:02:38.751Z,19.73
2019-06-20T15:05:08.540Z,19.73
2019-06-20T15:07:45.377Z,19.99
2019-06-20T15:10:15.199Z,20.04
2019-06-20T15:12:46.451Z,20.10
2019-06-20T15:15:16.085Z,20.18
2019-06-20T15:17:47.491Z,20.07
2019-06-20T15:20:22.609Z,20.07
2019-06-20T15:22:52.698Z,20.18
2019-06-20T15:25:22.523Z,20.00
2019-06-20T15:27:59.144Z,20.00
2019-06-20T15:30:37.039Z,19.90
2019-06-20T15:33:59.351Z,19.90
2019-06-20T15:36:42.027Z,20.01
2019-06-20T15:39:11.754Z,20.21
2019-06-20T15:41:41.533Z,20.24
2019-06-20T15:44:11.423Z,20.30
2019-06-20T15:46:41.304Z,20.25
2019-06-20T15:49:16.380Z,20.16
2019-06-20T15:51:46.570Z,20.16
2019-06-20T15:55:12.277Z,20.21
2019-06-20T15:57:56.964Z,20.21
2019-06-20T16:00:51.862Z,20.29
2019-06-20T16:03:33.236Z,20.07
2019-06-20T16:06:23.568Z,20.17
2019-06-20T16:08:56.258Z,20.17
2019-06-20T16:11:26.049Z,20.06
2019-06-20T16:13:56.148Z,20.14
2019-06-20T16:16:26.240Z,20.25
2019-06-20T16:18:56.559Z,20.25
2019-06-20T16:21:27.050Z,20.17
2019-06-20T16:26:45.046Z,20.25
2019-06-20T16:29:21.416Z,20.89
2019-06-20T16:32:00.561Z,20.90
2019-06-20T16:34:30.500Z,20.90
2019-06-20T16:40:16.510Z,20.51
2019-06-20T16:42:46.767Z,20.57
2019-06-20T16:45:18.191Z,20.68
2019-06-20T16:50:56.414Z,20.37
2019-06-20T16:53:29.144Z,20.03
2019-06-20T16:55:59.022Z,20.33
2019-06-20T16:58:28.962Z,20.37
2019-06-20T17:01:15.553Z,20.69
2019-06-20T17:03:59.899Z,20.61
2019-06-20T17:06:51.263Z,20.62
2019-06-20T17:09:44.181Z,20.52
2019-06-20T17:12:23.065Z,20.34
2019-06-20T17:14:53.406Z,20.24
2019-06-20T17:17:24.901Z,20.46
2019-06-20T17:20:00.655Z,20.46
2019-06-20T17:22:30.940Z,20.34
2019-06-20T17:25:14.992Z,20.29
2019-06-20T17:27:50.900Z,20.30
2019-06-20T17:30:33.891Z,20.03
2019-06-20T17:33:07.207Z,20.08
2019-06-20T17:35:46.370Z,20.18
2019-06-20T17:38:32.016Z,20.17
2019-06-20T17:41:19.080Z,20.17
2019-06-20T17:43:50.773Z,20.00
2019-06-20T17:50:11.809Z,20.08
2019-06-20T17:53:56.615Z,20.03
2019-06-20T17:56:21.009Z,20.03
2019-06-20T17:58:53.978Z,19.92
2019-06-20T18:01:35.883Z,19.80
2019-06-20T18:04:20.798Z,19.80
2019-06-20T18:07:46.271Z,19.84
2019-06-20T18:10:27.673Z,19.89
2019-06-20T18:13:03.984Z,19.70
2019-06-20T18:15:34.098Z,19.56
2019-06-20T18:18:06.749Z,19.48
2019-06-20T18:20:36.648Z,19.48
2019-06-20T18:23:06.277Z,19.32
2019-06-20T18:26:39.413Z,19.36
2019-06-20T18:28:46.122Z,19.28
2019-06-20T18:31:17.626Z,19.21
2019-06-20T18:33:47.254Z,19.18
2019-06-20T18:36:17.178Z,19.18
2019-06-20T18:38:49.284Z,19.17
2019-06-20T18:41:30.504Z,19.25
2019-06-20T18:44:04.454Z,19.25
2019-06-20T18:46:34.105Z,19.16
2019-06-20T18:49:04.041Z,19.28
2019-06-20T18:51:33.757Z,19.22
2019-06-20T18:54:03.707Z,19.03
2019-06-20T18:56:33.651Z,18.96
2019-06-20T18:59:06.369Z,18.96
2019-06-20T19:01:38.719Z,18.99
2019-06-20T19:04:52.633Z,18.99
2019-06-20T19:07:47.773Z,19.01
2019-06-20T19:10:20.380Z,19.03
2019-06-20T19:13:01.361Z,18.86
2019-06-20T19:15:45.707Z,18.79
2019-06-20T19:18:35.839Z,18.81
2019-06-20T19:21:05.544Z,18.86
2019-06-20T19:23:35.408Z,18.74
2019-06-20T19:26:06.304Z,18.79
2019-06-20T19:28:36.410Z,18.73
2019-06-20T19:31:05.956Z,18.60
2019-06-20T19:33:35.607Z,18.60
2019-06-20T19:36:05.490Z,18.67
2019-06-20T19:38:35.223Z,18.64
2019-06-20T19:41:05.229Z,18.67
2019-06-20T19:43:35.145Z,18.73
2019-06-20T19:46:05.046Z,18.71
2019-06-20T19:48:36.820Z,18.71
2019-06-20T19:51:06.622Z,18.66
2019-06-20T19:53:36.360Z,18.31
2019-06-20T19:56:06.196Z,18.37
2019-06-20T19:58:35.915Z,18.17
2019-06-20T20:01:05.636Z,18.07
2019-06-20T20:03:35.505Z,18.01
2019-06-20T20:06:05.152Z,18.01
2019-06-20T20:08:34.976Z,18.10
2019-06-20T20:11:04.914Z,18.01
2019-06-20T20:13:34.689Z,18.08
2019-06-20T20:16:05.237Z,18.08
2019-06-20T20:18:35.277Z,18.08
2019-06-20T20:21:05.307Z,17.73
2019-06-20T20:23:35.046Z,17.73
2019-06-20T20:26:08.459Z,17.78
2019-06-20T20:28:36.565Z,17.76
2019-06-20T20:31:06.482Z,17.76
2019-06-20T20:33:36.361Z,17.67
2019-06-20T20:36:06.488Z,17.59
2019-06-20T20:38:36.381Z,17.55
2019-06-20T20:41:06.102Z,17.55
2019-06-20T20:43:35.982Z,17.52
2019-06-20T20:46:05.768Z,17.56
2019-06-20T20:48:35.761Z,17.56
2019-06-20T20:51:05.561Z,17.54
2019-06-20T20:53:35.535Z,17.53
2019-06-20T20:56:05.207Z,17.45
2019-06-20T20:58:35.261Z,17.23
2019-06-20T21:01:29.293Z,17.23
2019-06-20T21:03:59.654Z,17.20
2019-06-20T21:06:29.636Z,17.18
2019-06-20T21:08:59.504Z,17.22
2019-06-20T21:11:30.347Z,17.10
2019-06-20T21:14:02.078Z,17.02
2019-06-20T21:16:31.721Z,17.01
2019-06-20T21:19:01.581Z,16.97
2019-06-20T21:21:31.378Z,16.97
2019-06-20T21:24:01.061Z,16.94
2019-06-20T21:26:31.061Z,16.73
2019-06-20T21:29:01.676Z,16.73
2019-06-20T21:31:33.285Z,16.78
2019-06-20T21:34:03.118Z,16.79
2019-06-20T21:36:32.856Z,16.78
2019-06-20T21:39:02.653Z,16.67
2019-06-20T21:41:32.490Z,16.67
2019-06-20T21:44:02.123Z,16.60
2019-06-20T21:46:32.029Z,16.60
2019-06-20T21:49:01.975Z,16.61
2019-06-20T21:51:31.713Z,16.67
2019-06-20T21:54:01.854Z,16.56
2019-06-20T21:56:31.798Z,16.49
2019-06-20T21:59:01.596Z,16.49
2019-06-20T22:01:31.419Z,16.42
2019-06-20T22:04:03.806Z,16.42
2019-06-20T22:06:33.559Z,16.51
2019-06-20T22:09:03.554Z,16.42
2019-06-20T22:11:33.523Z,16.51
2019-06-20T22:14:03.372Z,16.51
2019-06-20T22:16:33.067Z,16.44
2019-06-20T22:19:02.875Z,16.44
2019-06-20T22:21:32.586Z,16.48
2019-06-20T22:24:02.391Z,16.48
2019-06-20T22:26:32.151Z,16.44
2019-06-20T22:29:01.933Z,16.45
2019-06-20T22:31:31.764Z,16.52
2019-06-20T22:34:01.598Z,16.51
2019-06-20T22:36:40.361Z,16.45
2019-06-20T22:39:02.797Z,16.44
2019-06-20T22:41:34.437Z,16.52
2019-06-20T22:44:04.147Z,16.37
2019-06-20T22:46:33.963Z,16.26
2019-06-20T22:49:03.777Z,16.36
2019-06-20T22:51:33.737Z,16.36
2019-06-20T22:54:03.503Z,16.14
2019-06-20T22:56:34.921Z,16.14
2019-06-20T22:59:04.727Z,16.14
2019-06-20T23:01:34.422Z,16.14
2019-06-20T23:04:04.138Z,16.10
2019-06-20T23:06:33.876Z,16.09
2019-06-20T23:09:05.319Z,16.20
2019-06-20T23:11:34.976Z,16.12
2019-06-20T23:14:04.702Z,16.12
2019-06-20T23:16:34.767Z,16.07
2019-06-20T23:19:04.574Z,16.13
2019-06-20T23:21:34.579Z,16.09
2019-06-20T23:24:04.413Z,16.09
2019-06-20T23:26:34.664Z,16.05
2019-06-20T23:29:21.767Z,16.04
2019-06-20T23:31:51.847Z,16.06
2019-06-20T23:34:21.788Z,16.06
2019-06-20T23:36:51.434Z,15.92
2019-06-20T23:39:21.263Z,16.03
2019-06-20T23:41:50.947Z,16.00
2019-06-20T23:44:20.810Z,16.00
2019-06-20T23:46:50.453Z,15.97
2019-06-20T23:49:20.314Z,15.97
2019-06-20T23:52:03.989Z,15.95
2019-06-20T23:54:34.007Z,15.96
2019-06-20T23:57:03.717Z,15.94
2019-06-20T23:59:33.671Z,15.94
